createdAt,value
2019-04-25T07:11:43.709Z,17.00
2019-04-25T07:21:44.391Z,16.90
2019-04-25T07:31:44.846Z,17.90
2019-04-25T07:41:46.130Z,18.70
2019-04-25T07:51:47.410Z,19.40
2019-04-25T08:01:48.697Z,20.30
2019-04-25T08:11:49.946Z,21.70
2019-04-25T08:21:51.201Z,22.20
2019-04-25T08:31:53.538Z,23.20
2019-04-25T08:41:54.157Z,24.60
2019-04-25T08:51:55.800Z,27.20
2019-04-25T09:01:56.401Z,32.00
2019-04-25T09:11:57.682Z,32.10
2019-04-25T10:32:49.078Z,29.20
2019-04-25T10:42:51.096Z,26.40
2019-04-25T10:52:54.329Z,25.60
2019-04-25T11:02:54.894Z,25.50
2019-04-25T11:12:56.244Z,25.40
2019-04-25T11:22:57.530Z,25.10
2019-04-25T11:32:58.820Z,25.10
2019-04-25T11:43:00.094Z,25.00
2019-04-25T11:53:03.011Z,24.70
2019-04-25T12:03:03.715Z,24.80
2019-04-25T12:13:05.552Z,25.00
2019-04-25T12:23:10.419Z,24.90
2019-04-25T12:33:18.453Z,25.30
2019-04-25T12:43:15.553Z,25.20
2019-04-25T12:53:17.571Z,24.90
2019-04-25T13:03:19.066Z,24.80
2019-04-25T13:13:20.346Z,24.90
2019-04-25T13:23:21.616Z,25.30
2019-04-25T13:33:23.568Z,25.40
2019-04-25T13:43:24.274Z,25.00
2019-04-25T13:53:25.691Z,25.10
2019-04-25T14:03:27.301Z,24.90
2019-04-25T14:13:28.261Z,24.70
2019-04-25T14:23:29.542Z,24.60
2019-04-25T14:33:31.585Z,24.60
2019-04-25T14:43:33.548Z,24.50
2019-04-25T14:53:35.174Z,24.60
2019-04-25T15:03:35.675Z,24.70
2019-04-25T15:13:37.965Z,24.50
2019-04-25T15:23:39.418Z,24.40
2019-04-25T15:33:40.680Z,24.00
2019-04-25T15:43:41.938Z,24.00
2019-04-25T15:53:43.211Z,23.80
2019-04-25T16:03:44.480Z,23.90
2019-04-25T16:13:45.737Z,23.70
2019-04-25T16:23:47.009Z,23.60
2019-04-25T16:33:49.357Z,23.30
2019-04-25T16:43:51.411Z,22.30
2019-04-25T16:53:52.694Z,22.30
2019-04-25T17:03:53.974Z,22.00
2019-04-25T17:13:56.010Z,21.60
2019-04-25T17:23:57.286Z,21.60
2019-04-25T17:33:59.375Z,21.40
2019-04-25T17:44:01.120Z,21.40
2019-04-25T17:54:01.998Z,21.20
2019-04-25T18:04:04.033Z,20.60
2019-04-25T18:14:05.321Z,20.50
2019-04-25T18:24:06.581Z,20.40
2019-04-25T18:34:07.881Z,20.00
2019-04-25T18:54:17.712Z,19.90
2019-04-25T19:04:19.155Z,19.50
2019-04-25T19:14:20.493Z,19.60
2019-04-25T19:24:21.773Z,19.20
2019-04-25T19:34:23.051Z,18.50
2019-04-25T19:44:24.298Z,18.20
2019-04-25T19:54:25.557Z,18.60
2019-04-25T20:55:04.938Z,17.90
2019-04-25T21:05:06.981Z,17.00
2019-04-25T21:15:08.266Z,16.90
2019-04-25T21:25:10.310Z,16.30
2019-04-25T21:35:11.629Z,16.30
2019-04-25T21:45:12.914Z,16.10
2019-04-25T21:55:14.170Z,15.80
2019-04-25T22:05:15.482Z,15.60
2019-04-25T22:15:16.783Z,15.40
2019-04-25T22:25:18.110Z,15.30
2019-04-25T22:35:20.230Z,15.00
2019-04-25T22:45:21.562Z,15.00
2019-04-25T22:55:22.922Z,14.90
2019-04-25T23:05:24.263Z,14.70
2019-04-25T23:15:31.552Z,14.60
2019-04-25T23:25:33.647Z,14.30
2019-04-25T23:35:34.906Z,14.20
2019-04-25T23:45:36.190Z,14.30
2019-04-25T23:55:37.449Z,14.20
